Time;durP1;ratioP1;P1;durP2;ratioP2;P2;SDS_P1;SDS_P2;PMS_P1;PMS_P2;Temp;Humidity;BMP_temperature;BMP_pressure;BME280_temperature;BME280_humidity;BME280_pressure;Samples;Min_cycle;Max_cycle;Signal;HPM_P1;HPM_P2
2022/05/20 00:02:16;;;;;;;7.40;3.70;;;18.00;99.90;;;;;;5026385;28;20845;-66
2022/05/20 00:04:42;;;;;;;6.90;3.50;;;18.00;99.90;;;;;;5026875;28;20651;-66
2022/05/20 00:07:09;;;;;;;5.80;3.17;;;17.90;99.90;;;;;;5024871;28;20471;-67
2022/05/20 00:09:36;;;;;;;5.27;3.00;;;17.90;99.90;;;;;;5026481;28;20278;-66
2022/05/20 00:12:04;;;;;;;6.73;2.97;;;17.90;99.90;;;;;;5024520;28;20979;-66
2022/05/20 00:14:33;;;;;;;4.77;2.33;;;17.80;99.90;;;;;;5026592;28;20443;-66
2022/05/20 00:17:01;;;;;;;5.17;2.47;;;17.80;99.90;;;;;;5023010;28;20487;-66
2022/05/20 00:19:27;;;;;;;13.93;2.90;;;17.70;99.90;;;;;;5020991;28;20441;-66
2022/05/20 00:21:53;;;;;;;7.23;3.23;;;17.70;99.90;;;;;;5024716;28;21010;-66
2022/05/20 00:24:19;;;;;;;7.00;3.20;;;17.70;99.90;;;;;;5026302;28;20881;-66
2022/05/20 00:26:44;;;;;;;7.60;3.80;;;17.60;99.90;;;;;;5023757;28;20245;-66
2022/05/20 00:29:10;;;;;;;5.17;2.90;;;17.60;99.90;;;;;;5027144;28;20190;-66
2022/05/20 00:31:35;;;;;;;9.33;3.30;;;17.50;99.90;;;;;;5026443;28;20197;-66
2022/05/20 00:34:01;;;;;;;19.37;3.50;;;17.50;99.90;;;;;;5026248;28;20651;-66
2022/05/20 00:36:27;;;;;;;6.20;3.70;;;17.50;99.90;;;;;;5023573;28;20202;-66
2022/05/20 00:38:53;;;;;;;9.27;3.37;;;17.40;99.90;;;;;;5032975;28;20217;-66
2022/05/20 00:41:18;;;;;;;6.37;3.00;;;17.40;99.90;;;;;;5025590;28;20237;-66
2022/05/20 00:43:46;;;;;;;7.83;3.67;;;17.30;99.90;;;;;;5026376;28;20182;-66
2022/05/20 00:46:17;;;;;;;8.60;3.07;;;17.30;99.90;;;;;;5023636;28;20203;-66
2022/05/20 00:48:44;;;;;;;7.87;3.20;;;17.20;99.90;;;;;;5019231;28;20589;-66
2022/05/20 00:51:13;;;;;;;8.53;3.27;;;17.20;99.90;;;;;;5024988;28;20555;-66
2022/05/20 00:53:58;;;;;;;5.70;3.30;;;17.20;99.90;;;;;;5026056;28;21085;-66
2022/05/20 00:56:47;;;;;;;6.50;3.57;;;17.10;99.90;;;;;;5021117;28;20429;-66
2022/05/20 00:59:20;;;;;;;9.07;3.27;;;17.00;99.90;;;;;;5025676;28;20468;-66
2022/05/20 01:01:48;;;;;;;5.23;3.00;;;16.90;99.90;;;;;;5020924;28;20559;-66
2022/05/20 01:04:16;;;;;;;6.23;3.30;;;16.90;99.90;;;;;;5025828;28;20424;-66
2022/05/20 01:06:43;;;;;;;6.83;3.53;;;16.90;99.90;;;;;;5024055;28;20508;-66
2022/05/20 01:09:08;;;;;;;5.67;3.17;;;16.80;99.90;;;;;;5026212;28;20425;-66
2022/05/20 01:11:36;;;;;;;7.50;3.20;;;16.70;99.90;;;;;;5026366;28;20427;-66
2022/05/20 01:14:02;;;;;;;7.07;3.90;;;16.70;99.90;;;;;;5023721;28;20715;-66
2022/05/20 01:16:29;;;;;;;6.17;3.10;;;16.70;99.90;;;;;;5017695;28;20472;-66
2022/05/20 01:18:56;;;;;;;6.33;3.67;;;16.70;99.90;;;;;;5020276;28;20488;-66
2022/05/20 01:21:22;;;;;;;6.07;2.87;;;16.60;99.90;;;;;;5027817;28;20431;-66
2022/05/20 01:23:49;;;;;;;9.70;3.10;;;16.50;99.90;;;;;;5028351;28;20457;-66
2022/05/20 01:26:15;;;;;;;3.73;2.57;;;16.50;99.90;;;;;;5020658;28;20515;-65
2022/05/20 01:28:40;;;;;;;6.00;3.80;;;16.50;99.90;;;;;;5028729;28;20425;-66
2022/05/20 01:31:14;;;;;;;8.73;2.97;;;16.40;99.90;;;;;;5028445;28;20471;-66
2022/05/20 01:33:46;;;;;;;7.77;4.07;;;16.40;99.90;;;;;;5027064;28;20208;-66
2022/05/20 01:36:15;;;;;;;5.13;3.33;;;16.40;99.90;;;;;;5029068;28;20425;-66
2022/05/20 01:38:41;;;;;;;7.10;3.93;;;16.30;99.90;;;;;;5028820;28;20468;-66
2022/05/20 01:41:11;;;;;;;8.13;3.77;;;16.30;99.90;;;;;;5029129;28;20579;-66
2022/05/20 01:43:42;;;;;;;6.30;3.10;;;16.30;99.90;;;;;;5024236;28;20670;-66
2022/05/20 01:46:35;;;;;;;5.00;2.90;;;16.20;99.90;;;;;;5028579;28;20445;-66
2022/05/20 01:49:24;;;;;;;7.40;3.10;;;16.20;99.90;;;;;;5025593;28;20422;-66
2022/05/20 01:52:16;;;;;;;6.80;3.17;;;16.20;99.90;;;;;;5028345;28;20425;-66
2022/05/20 01:54:48;;;;;;;4.27;2.40;;;16.20;99.90;;;;;;5027416;28;20444;-67
2022/05/20 01:57:19;;;;;;;8.43;3.67;;;16.10;99.90;;;;;;5028611;28;20802;-66
2022/05/20 01:59:50;;;;;;;8.60;3.67;;;16.10;99.90;;;;;;5029185;28;20521;-66
2022/05/20 02:02:30;;;;;;;6.03;3.40;;;16.10;99.90;;;;;;5028644;28;20425;-66
2022/05/20 02:05:25;;;;;;;6.67;3.37;;;16.00;99.90;;;;;;5027415;28;20433;-66
2022/05/20 02:07:57;;;;;;;6.30;3.40;;;16.00;99.90;;;;;;5026842;28;20424;-66
2022/05/20 02:10:32;;;;;;;8.30;2.97;;;16.00;99.90;;;;;;5021130;28;20444;-66
2022/05/20 02:13:00;;;;;;;5.90;3.20;;;15.90;99.90;;;;;;5022859;28;20430;-67
2022/05/20 02:15:36;;;;;;;8.90;4.10;;;16.00;99.90;;;;;;5022731;28;20444;-66
2022/05/20 02:18:05;;;;;;;7.67;3.80;;;16.10;99.90;;;;;;5028019;28;20620;-66
2022/05/20 02:20:41;;;;;;;8.50;3.50;;;16.10;99.90;;;;;;5023810;28;20433;-66
2022/05/20 02:23:19;;;;;;;5.03;3.50;;;16.10;99.90;;;;;;5021542;28;20479;-66
2022/05/20 02:25:52;;;;;;;5.63;3.53;;;16.20;99.90;;;;;;5028612;28;20448;-66
2022/05/20 02:28:22;;;;;;;7.03;4.10;;;16.20;99.90;;;;;;5027745;28;20437;-66
2022/05/20 02:30:49;;;;;;;7.50;3.80;;;16.30;99.90;;;;;;5026059;28;20416;-66
2022/05/20 02:33:19;;;;;;;8.10;3.70;;;16.30;99.90;;;;;;5020795;28;20517;-67
2022/05/20 02:35:45;;;;;;;10.23;4.30;;;16.30;99.90;;;;;;5026482;28;20519;-66
2022/05/20 02:38:14;;;;;;;5.57;3.33;;;16.40;99.90;;;;;;5027920;28;21100;-66
2022/05/20 02:40:41;;;;;;;11.97;4.43;;;16.40;99.90;;;;;;5027845;28;20331;-66
2022/05/20 02:43:07;;;;;;;5.90;3.10;;;16.50;99.90;;;;;;5027540;28;20492;-67
2022/05/20 02:45:34;;;;;;;8.47;4.00;;;16.50;99.90;;;;;;5027638;28;20495;-66
2022/05/20 02:48:00;;;;;;;6.30;3.40;;;16.60;99.90;;;;;;5027516;28;20429;-66
2022/05/20 02:50:26;;;;;;;5.73;3.00;;;16.60;99.90;;;;;;5023120;28;20444;-67
2022/05/20 02:52:51;;;;;;;7.03;3.73;;;16.60;99.90;;;;;;5020759;28;20194;-66
2022/05/20 02:55:17;;;;;;;5.73;4.07;;;16.70;99.90;;;;;;5027787;28;20231;-66
2022/05/20 02:57:44;;;;;;;5.20;3.20;;;16.80;99.90;;;;;;5027300;28;20210;-66
2022/05/20 03:05:40;;;;;;;7.10;3.60;;;16.80;99.90;;;;;;5021917;28;20427;-67
2022/05/20 03:08:05;;;;;;;8.67;4.50;;;16.90;99.90;;;;;;5027339;28;20425;-66
2022/05/20 03:10:32;;;;;;;7.90;3.80;;;16.90;99.90;;;;;;5027854;28;20191;-66
2022/05/20 03:13:02;;;;;;;5.37;3.53;;;17.00;99.90;;;;;;5022269;28;20524;-66
2022/05/20 03:15:28;;;;;;;6.90;3.87;;;17.00;99.90;;;;;;5019813;28;20838;-66
2022/05/20 03:17:55;;;;;;;8.17;3.97;;;17.00;99.90;;;;;;5026662;28;20979;-66
2022/05/20 03:20:21;;;;;;;9.00;3.50;;;17.00;99.90;;;;;;5029628;28;20993;-66
2022/05/20 03:22:46;;;;;;;5.70;3.30;;;17.00;99.90;;;;;;5021631;28;20527;-66
2022/05/20 03:25:12;;;;;;;8.77;3.83;;;17.00;99.90;;;;;;5019217;28;20559;-66
2022/05/20 03:27:37;;;;;;;8.70;3.60;;;17.00;99.90;;;;;;5023768;28;20205;-66
2022/05/20 03:30:05;;;;;;;6.83;4.10;;;17.00;99.90;;;;;;5017727;28;20191;-67
2022/05/20 03:32:31;;;;;;;8.23;3.53;;;17.10;99.90;;;;;;5026326;28;20198;-66
2022/05/20 03:34:57;;;;;;;6.40;3.57;;;17.20;99.90;;;;;;5026541;28;20425;-66
2022/05/20 03:37:23;;;;;;;17.70;3.90;;;17.30;99.90;;;;;;5026893;28;20206;-66
2022/05/20 03:39:49;;;;;;;6.10;3.30;;;17.40;99.90;;;;;;5026888;28;20639;-67
2022/05/20 03:42:15;;;;;;;9.70;2.83;;;17.40;99.90;;;;;;5020918;28;20437;-66
2022/05/20 03:44:41;;;;;;;4.60;2.47;;;17.50;99.90;;;;;;5026409;28;20202;-66
2022/05/20 03:47:07;;;;;;;5.50;3.10;;;17.60;99.90;;;;;;5022059;28;20447;-66
2022/05/20 03:49:32;;;;;;;4.00;2.30;;;17.70;99.90;;;;;;5024320;28;20197;-66
2022/05/20 03:51:58;;;;;;;3.07;1.83;;;17.70;99.90;;;;;;5022202;28;20183;-66
2022/05/20 03:54:28;;;;;;;3.30;2.40;;;17.70;99.90;;;;;;5027187;28;20272;-67
2022/05/20 03:56:53;;;;;;;5.23;2.13;;;17.70;99.90;;;;;;5026298;28;20185;-66
2022/05/20 03:59:19;;;;;;;5.53;2.60;;;17.80;99.90;;;;;;5026856;28;20831;-66
2022/05/20 04:01:57;;;;;;;6.70;2.90;;;17.80;99.90;;;;;;5024622;28;20195;-67
2022/05/20 04:04:23;;;;;;;4.73;2.87;;;17.80;99.90;;;;;;5021974;28;20200;-66
2022/05/20 04:06:49;;;;;;;8.87;2.57;;;17.70;99.90;;;;;;5026910;28;20902;-66
2022/05/20 04:09:15;;;;;;;4.87;2.50;;;17.80;99.90;;;;;;5026542;28;20435;-66
2022/05/20 04:11:41;;;;;;;5.10;2.60;;;17.70;99.90;;;;;;5024794;28;20289;-66
2022/05/20 04:14:07;;;;;;;8.07;3.10;;;17.70;99.90;;;;;;5026287;28;20194;-66
2022/05/20 04:16:33;;;;;;;8.30;2.50;;;17.70;99.90;;;;;;5025600;28;20446;-66
2022/05/20 04:18:59;;;;;;;5.07;2.77;;;17.60;99.90;;;;;;5025793;28;20922;-67
2022/05/20 04:21:24;;;;;;;8.53;2.50;;;17.60;99.90;;;;;;5023235;28;20188;-67
2022/05/20 04:23:50;;;;;;;4.80;2.60;;;17.60;99.90;;;;;;5025460;28;20528;-67
2022/05/20 04:26:16;;;;;;;4.60;2.60;;;17.50;99.90;;;;;;5025981;28;20182;-66
2022/05/20 04:28:42;;;;;;;5.40;2.90;;;17.60;99.90;;;;;;5025255;28;20194;-66
2022/05/20 04:31:10;;;;;;;5.97;2.60;;;17.50;99.90;;;;;;5025639;28;20428;-67
2022/05/20 04:33:36;;;;;;;7.33;2.87;;;17.50;99.90;;;;;;5024105;28;20240;-66
2022/05/20 04:36:03;;;;;;;6.03;2.60;;;17.50;99.90;;;;;;5025678;28;20483;-66
2022/05/20 04:38:28;;;;;;;6.90;2.53;;;17.50;99.90;;;;;;5025282;28;20468;-67
2022/05/20 04:49:09;;;;;;;6.87;3.33;;;17.50;99.90;;;;;;5025737;28;20435;-67
2022/05/20 04:51:37;;;;;;;4.40;2.40;;;17.50;99.90;;;;;;5025674;28;20449;-67
2022/05/20 04:56:49;;;;;;;5.03;2.53;;;17.50;99.90;;;;;;5026035;28;20939;-66
2022/05/20 04:59:15;;;;;;;7.10;3.10;;;17.60;99.90;;;;;;5029850;28;21224;-67
2022/05/20 05:01:41;;;;;;;4.00;2.27;;;17.70;99.90;;;;;;5028850;28;20570;-66
2022/05/20 05:04:07;;;;;;;4.33;2.70;;;17.70;99.90;;;;;;5029856;28;20650;-66
2022/05/20 05:06:33;;;;;;;7.37;2.83;;;17.80;99.90;;;;;;5029465;28;20190;-67
2022/05/20 05:08:59;;;;;;;6.20;2.90;;;17.80;99.90;;;;;;5029854;28;20567;-66
2022/05/20 05:11:25;;;;;;;7.43;1.83;;;17.90;99.90;;;;;;5028725;28;20433;-67
2022/05/20 05:13:51;;;;;;;5.17;2.70;;;18.00;99.90;;;;;;5029862;28;20461;-66
2022/05/20 05:16:16;;;;;;;4.47;2.70;;;18.10;99.90;;;;;;5028732;28;20194;-66
2022/05/20 05:18:42;;;;;;;7.57;2.43;;;18.10;99.90;;;;;;5023734;28;20214;-66
2022/05/20 05:21:07;;;;;;;6.90;2.70;;;18.20;99.90;;;;;;5030795;28;20678;-66
2022/05/20 05:23:33;;;;;;;8.80;2.53;;;18.20;99.90;;;;;;5029039;28;20270;-67
2022/05/20 05:25:59;;;;;;;5.90;2.70;;;18.30;99.90;;;;;;5025599;28;20274;-66
2022/05/20 05:28:25;;;;;;;4.47;2.30;;;18.30;99.90;;;;;;5026892;28;20610;-66
2022/05/20 05:30:52;;;;;;;7.30;2.97;;;18.30;99.90;;;;;;5025905;28;20566;-67
2022/05/20 05:33:20;;;;;;;4.63;1.93;;;18.30;99.90;;;;;;5026486;28;20453;-67
2022/05/20 05:35:46;;;;;;;6.43;2.47;;;18.40;99.90;;;;;;5021317;28;20428;-67
2022/05/20 05:38:11;;;;;;;4.57;2.33;;;18.40;99.90;;;;;;5027321;28;20468;-66
2022/05/20 05:40:38;;;;;;;4.93;2.37;;;18.50;99.90;;;;;;5028765;28;20194;-67
2022/05/20 05:43:04;;;;;;;6.33;2.87;;;18.60;99.90;;;;;;5025630;28;20222;-67
2022/05/20 05:45:32;;;;;;;2.80;1.60;;;18.70;99.90;;;;;;5021904;28;20495;-66
2022/05/20 05:48:02;;;;;;;5.50;1.73;;;18.90;99.90;;;;;;5028801;28;20205;-66
2022/05/20 05:50:29;;;;;;;5.70;2.30;;;19.00;99.90;;;;;;5032204;28;20424;-67
2022/05/20 05:53:19;;;;;;;3.43;2.10;;;19.10;99.90;;;;;;5037772;28;20425;-66
2022/05/20 05:55:47;;;;;;;4.47;2.57;;;19.20;99.90;;;;;;5041441;28;20497;-66
2022/05/20 05:58:14;;;;;;;4.00;1.97;;;19.20;99.90;;;;;;5037707;28;20567;-66
2022/05/20 06:00:41;;;;;;;5.27;2.47;;;19.30;99.90;;;;;;5030015;28;20437;-66
2022/05/20 06:03:08;;;;;;;2.27;1.40;;;19.40;99.90;;;;;;5031649;28;20542;-66
2022/05/20 06:05:34;;;;;;;4.97;2.03;;;19.30;99.90;;;;;;5035677;28;20436;-67
2022/05/20 06:08:00;;;;;;;3.90;1.80;;;19.50;99.90;;;;;;5013712;28;20928;-66
2022/05/20 06:10:27;;;;;;;9.60;2.27;;;19.60;99.90;;;;;;5007630;28;20432;-66
2022/05/20 06:12:55;;;;;;;4.43;2.40;;;19.70;99.90;;;;;;5025997;28;20425;-67
2022/05/20 06:15:22;;;;;;;3.87;2.10;;;19.80;99.90;;;;;;5028494;28;20527;-67
2022/05/20 06:17:49;;;;;;;3.10;1.77;;;19.90;99.90;;;;;;5024827;28;20578;-67
2022/05/20 06:20:16;;;;;;;3.50;1.90;;;19.90;99.90;;;;;;5026587;28;20441;-67
2022/05/20 06:22:42;;;;;;;5.97;1.90;;;20.10;99.90;;;;;;5027007;28;20943;-67
2022/05/20 06:25:08;;;;;;;4.30;1.93;;;20.30;99.90;;;;;;5028897;28;20421;-67
2022/05/20 06:27:35;;;;;;;4.03;2.00;;;20.40;99.90;;;;;;5028414;28;20187;-67
2022/05/20 06:30:03;;;;;;;6.33;2.17;;;20.50;99.40;;;;;;5023142;28;20506;-67
2022/05/20 06:32:29;;;;;;;5.20;1.97;;;20.70;99.40;;;;;;5028038;28;21275;-67
2022/05/20 06:40:44;;;;;;;2.97;2.03;;;21.00;98.70;;;;;;5023127;28;21273;-66
2022/05/20 06:43:12;;;;;;;5.33;2.10;;;21.10;98.10;;;;;;5027670;28;20423;-67
2022/05/20 06:45:38;;;;;;;5.90;2.27;;;21.10;98.50;;;;;;5028436;28;20445;-67
2022/05/20 06:48:05;;;;;;;3.50;2.00;;;21.20;97.90;;;;;;5021085;28;20446;-66
2022/05/20 06:50:31;;;;;;;3.70;2.03;;;21.20;97.60;;;;;;5023268;28;20187;-67
2022/05/20 06:52:57;;;;;;;8.63;2.10;;;21.20;98.00;;;;;;5025552;28;20547;-67
2022/05/20 06:55:22;;;;;;;11.57;2.37;;;21.20;97.90;;;;;;5024214;28;20590;-68
2022/05/20 06:57:48;;;;;;;4.17;2.00;;;21.30;97.30;;;;;;5030905;28;20216;-67
2022/05/20 07:00:14;;;;;;;5.90;2.00;;;21.40;97.40;;;;;;5023913;28;20183;-65
2022/05/20 07:02:40;;;;;;;5.17;2.27;;;21.60;97.60;;;;;;5023374;28;20196;-65
2022/05/20 07:05:08;;;;;;;3.03;2.13;;;21.80;96.50;;;;;;5021425;28;20921;-68
2022/05/20 07:07:34;;;;;;;6.57;2.30;;;22.00;96.50;;;;;;5028264;28;20433;-67
2022/05/20 07:10:00;;;;;;;2.90;1.60;;;22.20;96.20;;;;;;5024447;28;20429;-67
2022/05/20 07:12:26;;;;;;;6.77;2.30;;;22.30;96.30;;;;;;5026292;28;20196;-68
2022/05/20 07:14:51;;;;;;;3.57;2.03;;;22.50;96.20;;;;;;5024840;28;20329;-65
2022/05/20 07:17:18;;;;;;;5.60;2.40;;;22.80;96.10;;;;;;5019601;28;20194;-65
2022/05/20 07:19:44;;;;;;;3.97;2.03;;;23.10;96.40;;;;;;5024447;28;20185;-65
2022/05/20 07:22:10;;;;;;;3.87;2.00;;;23.50;94.90;;;;;;5027294;28;20886;-66
2022/05/20 07:24:38;;;;;;;11.03;2.47;;;24.00;93.80;;;;;;5025642;28;20245;-65
2022/05/20 07:27:04;;;;;;;11.33;2.00;;;24.30;93.70;;;;;;5026889;28;20174;-65
2022/05/20 07:29:30;;;;;;;6.43;1.73;;;24.50;93.60;;;;;;5028107;28;20436;-66
2022/05/20 07:31:55;;;;;;;7.83;2.00;;;25.00;93.30;;;;;;5027331;28;20466;-65
2022/05/20 07:34:21;;;;;;;4.30;2.30;;;25.80;92.80;;;;;;5026058;28;20194;-66
2022/05/20 07:36:46;;;;;;;5.15;2.40;;;26.70;90.60;;;;;;5026754;28;20232;-66
2022/05/20 07:39:12;;;;;;;6.70;2.15;;;27.60;86.80;;;;;;5026098;28;20893;-67
2022/05/20 07:41:38;;;;;;;8.30;1.80;;;28.50;83.50;;;;;;5028976;28;20584;-66
2022/05/20 07:44:04;;;;;;;4.07;2.38;;;29.40;79.50;;;;;;5025454;28;20196;-66
2022/05/20 07:46:30;;;;;;;12.98;2.20;;;29.60;78.40;;;;;;5021664;28;20201;-66
2022/05/20 07:48:56;;;;;;;3.63;2.00;;;29.80;76.70;;;;;;5026777;28;20198;-66
2022/05/20 07:51:24;;;;;;;3.65;2.08;;;30.10;75.50;;;;;;5027652;28;20281;-66
2022/05/20 07:53:58;;;;;;;9.30;2.47;;;30.10;74.80;;;;;;5026554;28;20654;-66
2022/05/20 07:56:40;;;;;;;3.03;1.60;;;30.20;74.30;;;;;;5020813;28;20194;-66
2022/05/20 07:59:14;;;;;;;5.78;2.50;;;30.30;73.70;;;;;;5021138;28;20321;-66
2022/05/20 08:01:45;;;;;;;5.38;2.00;;;30.80;73.40;;;;;;5024292;28;20186;-66
2022/05/20 08:07:02;;;;;;;12.20;2.53;;;30.70;72.90;;;;;;5024051;28;20786;-66
2022/05/20 08:09:28;;;;;;;7.50;2.50;;;30.60;72.70;;;;;;5026408;28;20190;-66
2022/05/20 08:11:56;;;;;;;4.43;2.30;;;30.70;73.20;;;;;;5027045;28;20182;-66
2022/05/20 08:14:21;;;;;;;6.07;2.88;;;30.60;73.60;;;;;;5026441;28;20197;-66
2022/05/20 08:16:47;;;;;;;5.22;2.45;;;30.60;72.40;;;;;;5026447;28;20194;-66
2022/05/20 08:19:14;;;;;;;6.43;2.88;;;30.60;74.30;;;;;;5023311;28;20292;-66
2022/05/20 08:21:39;;;;;;;4.53;2.38;;;30.60;76.30;;;;;;5028749;28;20181;-66
2022/05/20 08:24:06;;;;;;;9.27;2.00;;;31.30;73.80;;;;;;5026999;28;20189;-66
2022/05/20 08:26:32;;;;;;;4.43;2.75;;;31.60;70.90;;;;;;5026761;28;20597;-66
2022/05/20 08:28:59;;;;;;;7.18;3.00;;;31.40;72.00;;;;;;5025466;28;20562;-66
2022/05/20 08:31:25;;;;;;;15.88;2.75;;;31.90;71.60;;;;;;5023416;28;20874;-66
2022/05/20 08:33:51;;;;;;;5.00;2.42;;;32.00;71.60;;;;;;5027492;28;20240;-66
2022/05/20 08:36:17;;;;;;;5.13;2.40;;;32.10;69.90;;;;;;5030840;28;20178;-66
2022/05/20 08:38:43;;;;;;;4.45;2.22;;;32.10;69.10;;;;;;5030573;28;20213;-66
2022/05/20 08:41:17;;;;;;;8.02;2.72;;;32.20;70.90;;;;;;5025355;28;20174;-66
2022/05/20 08:43:43;;;;;;;9.95;2.40;;;32.60;69.70;;;;;;5020631;28;20745;-66
2022/05/20 08:46:10;;;;;;;8.38;2.45;;;32.40;68.90;;;;;;5026509;28;20205;-66
2022/05/20 08:48:39;;;;;;;5.18;2.35;;;32.10;67.30;;;;;;5020344;28;20483;-66
2022/05/20 08:51:06;;;;;;;6.68;2.20;;;32.10;68.40;;;;;;5027273;28;20188;-67
2022/05/20 08:53:36;;;;;;;4.25;2.22;;;31.90;66.10;;;;;;5022184;28;20276;-66
2022/05/20 08:56:06;;;;;;;4.45;2.63;;;32.20;66.60;;;;;;5022249;28;20941;-66
2022/05/20 08:58:33;;;;;;;3.35;1.92;;;31.90;67.10;;;;;;5023637;28;20325;-65
2022/05/20 09:00:59;;;;;;;4.65;2.75;;;31.80;67.50;;;;;;5029445;28;20205;-65
2022/05/20 09:03:26;;;;;;;5.40;2.70;;;31.40;66.50;;;;;;5028097;28;20186;-66
2022/05/20 09:06:07;;;;;;;7.78;3.00;;;31.00;68.80;;;;;;5029058;28;20558;-66
2022/05/20 09:08:34;;;;;;;6.55;2.58;;;31.30;68.10;;;;;;5026962;28;20209;-68
2022/05/20 09:11:02;;;;;;;8.30;2.92;;;31.10;68.50;;;;;;5028810;28;20177;-67
2022/05/20 09:16:16;;;;;;;4.55;2.42;;;31.70;66.90;;;;;;5030671;28;20197;-64
2022/05/20 09:18:45;;;;;;;14.35;2.95;;;31.40;63.40;;;;;;5030043;28;20212;-65
2022/05/20 09:21:33;;;;;;;4.18;2.28;;;30.80;65.50;;;;;;5028364;28;20183;-66
2022/05/20 09:24:03;;;;;;;4.05;1.95;;;31.00;66.60;;;;;;5030085;28;20181;-64
2022/05/20 09:26:37;;;;;;;4.38;2.42;;;31.00;66.30;;;;;;5029048;28;20182;-66
2022/05/20 09:29:21;;;;;;;6.88;2.35;;;31.20;66.70;;;;;;5026553;28;20186;-66
2022/05/20 09:31:48;;;;;;;6.43;2.75;;;30.90;66.00;;;;;;5026539;28;20185;-66
2022/05/20 09:34:41;;;;;;;5.68;2.05;;;31.10;65.40;;;;;;5029373;28;20717;-66
2022/05/20 09:37:14;;;;;;;6.30;2.55;;;30.80;65.00;;;;;;5028712;28;20701;-66
2022/05/20 09:39:43;;;;;;;4.35;2.13;;;30.90;66.10;;;;;;5026575;28;20182;-66
2022/05/20 09:42:19;;;;;;;4.50;2.28;;;30.80;64.70;;;;;;5028315;28;20189;-66
2022/05/20 09:45:00;;;;;;;4.38;2.38;;;30.80;64.70;;;;;;5032093;28;20189;-66
2022/05/20 09:47:26;;;;;;;6.03;2.63;;;30.80;64.30;;;;;;5027173;28;20204;-66
2022/05/20 09:49:58;;;;;;;6.70;2.65;;;31.00;63.80;;;;;;5027811;28;20176;-66
2022/05/20 09:52:41;;;;;;;6.53;2.75;;;30.80;64.90;;;;;;5028197;28;20587;-66
2022/05/20 09:55:14;;;;;;;5.70;2.63;;;31.00;58.90;;;;;;5028304;28;20693;-66
2022/05/20 09:57:46;;;;;;;6.38;2.28;;;30.80;59.80;;;;;;5028471;28;20209;-66
2022/05/20 10:00:32;;;;;;;14.48;2.85;;;30.90;58.60;;;;;;5025960;28;20204;-66
2022/05/20 10:03:03;;;;;;;5.13;2.22;;;30.90;59.50;;;;;;5026829;28;20182;-67
2022/05/20 10:05:29;;;;;;;4.80;2.17;;;31.30;56.60;;;;;;5025991;28;20220;-66
2022/05/20 10:08:16;;;;;;;14.55;2.45;;;31.00;57.30;;;;;;5028185;28;20213;-66
2022/05/20 10:11:24;;;;;;;5.63;2.17;;;30.60;58.50;;;;;;5024719;28;20185;-66
2022/05/20 10:14:02;;;;;;;5.28;3.10;;;30.60;60.70;;;;;;5027829;28;20200;-66
2022/05/20 10:16:39;;;;;;;17.20;1.70;;;30.40;58.90;;;;;;5028277;28;20200;-66
2022/05/20 10:19:25;;;;;;;3.28;1.88;;;30.10;57.40;;;;;;5023848;28;20201;-65
2022/05/20 10:22:20;;;;;;;6.38;2.00;;;30.10;59.40;;;;;;5029078;28;20261;-65
2022/05/20 10:24:46;;;;;;;3.15;1.83;;;29.80;59.10;;;;;;5027056;28;20603;-65
2022/05/20 10:27:30;;;;;;;3.75;2.00;;;29.70;58.00;;;;;;5028243;28;20265;-66
2022/05/20 10:33:01;;;;;;;8.13;2.17;;;29.60;59.00;;;;;;5024177;28;20230;-66
2022/05/20 10:35:56;;;;;;;4.28;2.17;;;29.80;60.90;;;;;;5028376;28;20204;-66
2022/05/20 10:38:24;;;;;;;7.28;1.83;;;30.00;59.80;;;;;;5030414;28;20210;-66
2022/05/20 10:41:12;;;;;;;13.77;2.42;;;30.00;59.30;;;;;;5026918;28;20188;-65
2022/05/20 10:50:01;;;;;;;4.88;2.13;;;30.10;61.00;;;;;;5025577;28;20552;-66
2022/05/20 10:52:26;;;;;;;7.28;1.80;;;30.10;60.00;;;;;;5027667;28;20238;-66
2022/05/20 10:55:04;;;;;;;6.47;3.03;;;30.10;62.10;;;;;;5021556;28;20597;-65
2022/05/20 10:58:07;;;;;;;4.05;1.67;;;30.00;59.30;;;;;;5024871;28;20276;-66
2022/05/20 11:00:55;;;;;;;4.32;2.13;;;29.90;60.90;;;;;;5022868;28;20177;-66
2022/05/20 11:03:48;;;;;;;5.30;2.65;;;30.00;60.50;;;;;;5028469;28;20182;-65
2022/05/20 11:06:33;;;;;;;3.50;2.00;;;30.10;60.90;;;;;;5027546;28;20190;-65
2022/05/20 11:09:04;;;;;;;6.47;2.13;;;30.40;60.40;;;;;;5023605;28;20182;-65
2022/05/20 11:11:41;;;;;;;4.65;2.03;;;30.50;59.60;;;;;;5028767;28;20186;-66
2022/05/20 11:14:38;;;;;;;14.48;3.38;;;30.40;59.70;;;;;;5025984;28;20186;-65
2022/05/20 11:17:38;;;;;;;7.13;2.47;;;30.40;58.10;;;;;;5027782;28;20244;-66
2022/05/20 11:20:34;;;;;;;6.90;2.03;;;30.50;59.00;;;;;;5048338;28;20190;-66
2022/05/20 11:23:09;;;;;;;6.20;1.95;;;30.70;59.80;;;;;;5025383;28;20186;-66
2022/05/20 11:25:35;;;;;;;8.05;2.38;;;30.80;59.20;;;;;;5030347;28;20296;-66
2022/05/20 11:28:24;;;;;;;5.80;2.08;;;31.00;59.30;;;;;;5026551;28;20186;-66
2022/05/20 11:31:05;;;;;;;8.93;1.75;;;31.10;58.90;;;;;;5023449;28;20717;-66
2022/05/20 11:33:53;;;;;;;5.10;2.67;;;31.30;59.20;;;;;;5028184;28;20193;-66
2022/05/20 11:36:21;;;;;;;4.80;2.28;;;31.10;58.00;;;;;;5026724;28;20277;-66
2022/05/20 11:39:08;;;;;;;11.82;2.50;;;30.70;58.00;;;;;;5018062;28;20202;-65
2022/05/20 11:41:48;;;;;;;7.13;3.13;;;30.80;59.90;;;;;;5020385;28;20205;-66
2022/05/20 11:44:28;;;;;;;4.60;2.13;;;31.00;58.60;;;;;;5025174;28;20610;-65
2022/05/20 11:47:13;;;;;;;11.77;2.45;;;31.10;57.90;;;;;;5020490;28;20217;-65
2022/05/20 11:49:41;;;;;;;11.02;2.15;;;31.00;57.80;;;;;;5013975;28;20193;-66
2022/05/20 11:52:26;;;;;;;3.38;2.08;;;31.00;58.20;;;;;;5027965;28;20190;-65
2022/05/20 11:55:00;;;;;;;4.90;1.55;;;31.00;58.30;;;;;;5023975;28;20193;-66
2022/05/20 11:57:29;;;;;;;5.57;2.53;;;30.90;57.70;;;;;;5023415;28;20200;-66
2022/05/20 12:00:15;;;;;;;3.40;2.05;;;31.00;56.30;;;;;;5016839;28;20190;-66
2022/05/20 12:02:47;;;;;;;4.03;2.35;;;31.00;56.90;;;;;;5020428;28;20189;-66
2022/05/20 12:05:16;;;;;;;3.75;1.75;;;31.10;55.60;;;;;;5025526;28;20722;-65
2022/05/20 12:07:42;;;;;;;4.80;2.10;;;31.20;56.20;;;;;;5023876;28;20935;-66
2022/05/20 12:10:29;;;;;;;4.45;2.08;;;31.20;54.10;;;;;;5021618;28;20481;-66
2022/05/20 12:13:21;;;;;;;6.53;2.40;;;31.30;56.50;;;;;;5022191;28;20193;-66
2022/05/20 12:15:49;;;;;;;2.92;1.67;;;31.40;56.30;;;;;;5022343;28;20705;-65
2022/05/20 12:24:40;;;;;;;4.47;1.90;;;31.30;56.40;;;;;;5018236;28;20567;-66
2022/05/20 12:27:22;;;;;;;11.75;2.30;;;31.30;55.00;;;;;;5026529;28;20212;-65
2022/05/20 12:29:59;;;;;;;11.73;2.05;;;31.40;54.10;;;;;;5018611;28;20622;-66
2022/05/20 12:32:36;;;;;;;3.83;1.65;;;31.30;54.80;;;;;;5027871;28;20936;-66
2022/05/20 12:35:24;;;;;;;5.10;1.70;;;31.40;54.80;;;;;;5022084;28;20209;-66
2022/05/20 12:37:49;;;;;;;7.50;2.35;;;31.30;55.50;;;;;;5025339;28;20208;-65
2022/05/20 12:40:40;;;;;;;3.78;1.85;;;31.40;54.70;;;;;;5024536;28;20531;-65
2022/05/20 12:43:09;;;;;;;5.65;1.98;;;31.60;55.50;;;;;;5019987;28;20296;-66
2022/05/20 12:45:47;;;;;;;5.93;1.95;;;31.50;51.60;;;;;;5018650;28;20893;-66
2022/05/20 12:48:13;;;;;;;6.72;1.65;;;31.50;54.10;;;;;;5026358;28;20189;-66
2022/05/20 12:50:40;;;;;;;7.57;1.92;;;31.30;53.20;;;;;;5027074;28;20194;-65
2022/05/20 12:53:12;;;;;;;5.72;2.00;;;31.50;53.40;;;;;;5022027;28;20289;-65
2022/05/20 12:55:45;;;;;;;4.10;1.80;;;31.40;55.10;;;;;;5027019;28;20226;-65
2022/05/20 12:58:14;;;;;;;5.82;2.58;;;31.30;52.30;;;;;;5026814;28;20237;-65
2022/05/20 13:00:49;;;;;;;3.70;1.98;;;31.40;51.80;;;;;;5026095;28;20178;-65
2022/05/20 13:03:22;;;;;;;4.13;1.95;;;31.40;52.50;;;;;;5026337;28;20192;-66
2022/05/20 13:05:49;;;;;;;4.32;1.95;;;31.40;54.30;;;;;;5023958;28;20170;-66
2022/05/20 13:08:18;;;;;;;3.75;2.00;;;31.60;54.30;;;;;;5025829;28;20233;-66
2022/05/20 13:10:44;;;;;;;6.13;2.05;;;31.80;52.90;;;;;;5021925;28;20639;-66
2022/05/20 13:13:16;;;;;;;6.18;2.15;;;31.80;54.10;;;;;;5026970;28;20204;-66
2022/05/20 13:15:49;;;;;;;3.95;1.60;;;31.90;51.90;;;;;;5030510;28;20189;-66
2022/05/20 13:18:19;;;;;;;12.43;2.20;;;32.10;52.50;;;;;;5024146;28;20210;-66
2022/05/20 13:20:47;;;;;;;4.25;1.95;;;32.10;53.60;;;;;;5027005;28;20182;-66
2022/05/20 13:23:20;;;;;;;5.45;2.28;;;32.00;53.30;;;;;;5030459;28;20197;-66
2022/05/20 13:25:46;;;;;;;19.17;2.50;;;32.00;53.10;;;;;;5027760;28;20186;-66
2022/05/20 13:28:22;;;;;;;12.18;2.67;;;32.20;54.00;;;;;;5031486;28;20197;-66
2022/05/20 13:30:47;;;;;;;15.10;2.00;;;32.30;53.90;;;;;;5025339;28;20178;-66
2022/05/20 13:33:13;;;;;;;4.38;1.88;;;32.50;53.80;;;;;;5030221;28;20284;-66
2022/05/20 13:35:50;;;;;;;6.78;1.80;;;32.60;51.30;;;;;;5030109;28;20216;-66
2022/05/20 13:38:17;;;;;;;8.48;1.80;;;32.60;53.50;;;;;;5029318;28;20201;-66
2022/05/20 13:40:44;;;;;;;5.88;1.90;;;32.60;52.20;;;;;;5023148;28;20193;-65
2022/05/20 13:43:11;;;;;;;4.03;1.80;;;32.60;52.30;;;;;;5024151;28;20924;-66
2022/05/20 13:51:29;;;;;;;6.93;2.05;;;32.40;52.20;;;;;;5021415;28;20533;-66
2022/05/20 13:54:03;;;;;;;5.85;1.85;;;32.50;52.10;;;;;;5028711;28;20189;-66